Time;durP1;ratioP1;P1;durP2;ratioP2;P2;SDS_P1;SDS_P2;PMS_P1;PMS_P2;Temp;Humidity;BMP_temperature;BMP_pressure;BME280_temperature;BME280_humidity;BME280_pressure;Samples;Min_cycle;Max_cycle;Signal;HPM_P1;HPM_P2
2022/01/09 00:01:49;;;;;;;;;2.50;1.75;;;;;;;;5047399;28;45794;-73
2022/01/09 00:04:14;;;;;;;;;2.33;2.00;;;;;;;;5045210;28;45963;-73
2022/01/09 00:06:39;;;;;;;;;7.00;2.00;;;;;;;;5047230;28;45496;-73
2022/01/09 00:09:05;;;;;;;;;5.75;3.00;;;;;;;;5046240;28;45474;-72
2022/01/09 00:11:30;;;;;;;;;3.50;3.00;;;;;;;;5046304;28;45405;-73
2022/01/09 00:13:56;;;;;;;;;6.00;3.00;;;;;;;;5047536;28;45358;-73
2022/01/09 00:16:22;;;;;;;;;7.25;4.75;;;;;;;;5045929;28;45729;-73
2022/01/09 00:18:48;;;;;;;;;4.50;4.00;;;;;;;;5046432;28;45464;-73
2022/01/09 00:21:13;;;;;;;;;4.25;2.75;;;;;;;;5047202;28;45428;-72
2022/01/09 00:23:39;;;;;;;;;6.50;4.00;;;;;;;;5045250;28;45362;-73
2022/01/09 00:26:06;;;;;;;;;5.50;5.00;;;;;;;;5049523;28;45428;-72
2022/01/09 00:28:31;;;;;;;;;4.75;4.00;;;;;;;;5046934;28;45568;-73
2022/01/09 00:30:57;;;;;;;;;4.00;3.00;;;;;;;;5045166;28;45493;-73
2022/01/09 00:33:22;;;;;;;;;7.50;3.75;;;;;;;;5045221;28;45550;-73
2022/01/09 00:35:49;;;;;;;;;6.50;4.00;;;;;;;;5045910;28;45568;-73
2022/01/09 00:38:15;;;;;;;;;5.75;4.00;;;;;;;;5047055;28;45511;-72
2022/01/09 00:40:40;;;;;;;;;7.25;4.25;;;;;;;;5043881;28;45330;-73
2022/01/09 00:43:09;;;;;;;;;5.75;2.75;;;;;;;;5044821;28;45280;-72
2022/01/09 00:45:35;;;;;;;;;8.25;6.00;;;;;;;;5044279;28;45368;-72
2022/01/09 00:48:00;;;;;;;;;9.75;6.50;;;;;;;;5046764;28;45550;-72
2022/01/09 00:50:26;;;;;;;;;6.00;6.00;;;;;;;;5045605;28;45410;-72
2022/01/09 00:52:51;;;;;;;;;5.00;5.00;;;;;;;;5045186;28;45347;-72
2022/01/09 00:55:18;;;;;;;;;4.00;3.00;;;;;;;;5046740;28;45408;-72
2022/01/09 00:57:43;;;;;;;;;9.50;5.75;;;;;;;;5045310;28;45441;-72
2022/01/09 01:00:09;;;;;;;;;6.00;4.00;;;;;;;;5045378;28;45566;-72
2022/01/09 01:02:34;;;;;;;;;5.25;4.75;;;;;;;;5046332;28;46104;-72
2022/01/09 01:05:00;;;;;;;;;5.50;3.00;;;;;;;;5046707;28;45310;-72
2022/01/09 01:07:27;;;;;;;;;12.00;4.50;;;;;;;;5045493;28;45226;-72
2022/01/09 01:09:53;;;;;;;;;3.00;2.50;;;;;;;;5045163;28;45454;-72
2022/01/09 01:12:18;;;;;;;;;10.00;5.00;;;;;;;;5046434;28;46597;-72
2022/01/09 01:14:43;;;;;;;;;5.75;4.75;;;;;;;;5044846;28;45384;-72
2022/01/09 01:17:09;;;;;;;;;4.67;4.00;;;;;;;;5045371;28;45493;-72
2022/01/09 01:19:35;;;;;;;;;4.00;1.67;;;;;;;;5046760;28;45411;-72
2022/01/09 01:22:01;;;;;;;;;3.00;2.25;;;;;;;;5046359;28;45414;-72
2022/01/09 01:24:27;;;;;;;;;4.00;2.00;;;;;;;;5045371;28;45473;-73
2022/01/09 01:26:52;;;;;;;;;3.00;2.00;;;;;;;;5045005;28;45423;-74
2022/01/09 01:29:18;;;;;;;;;2.33;1.00;;;;;;;;5046513;28;45446;-73
2022/01/09 01:31:43;;;;;;;;;21.25;14.50;;;;;;;;5044761;28;45493;-72
2022/01/09 01:34:11;;;;;;;;;23.50;20.50;;;;;;;;5047221;28;45371;-73
2022/01/09 01:36:37;;;;;;;;;8.50;5.50;;;;;;;;5050255;28;45459;-74
2022/01/09 01:39:02;;;;;;;;;4.00;3.00;;;;;;;;5049832;28;45477;-73
2022/01/09 01:41:28;;;;;;;;;3.75;2.50;;;;;;;;5049198;28;45456;-73
2022/01/09 01:43:53;;;;;;;;;3.00;2.00;;;;;;;;5048944;28;45972;-73
2022/01/09 01:46:18;;;;;;;;;4.00;2.00;;;;;;;;5049963;28;45507;-74
2022/01/09 01:48:44;;;;;;;;;3.75;2.50;;;;;;;;5048457;28;45389;-73
2022/01/09 01:51:09;;;;;;;;;5.75;3.50;;;;;;;;5048381;28;45503;-74
2022/01/09 01:53:34;;;;;;;;;5.00;3.00;;;;;;;;5049483;28;45431;-72
2022/01/09 01:56:01;;;;;;;;;4.50;3.50;;;;;;;;5047724;28;45555;-74
2022/01/09 01:58:28;;;;;;;;;4.25;4.00;;;;;;;;5050678;28;45444;-72
2022/01/09 02:00:54;;;;;;;;;14.25;9.75;;;;;;;;5049537;28;45564;-72
2022/01/09 02:03:19;;;;;;;;;5.00;3.00;;;;;;;;5060285;28;45529;-72
2022/01/09 02:05:45;;;;;;;;;6.25;4.00;;;;;;;;5060395;28;45251;-72
2022/01/09 02:08:11;;;;;;;;;12.00;7.75;;;;;;;;5060376;28;45461;-72
2022/01/09 02:10:44;;;;;;;;;16.50;14.75;;;;;;;;5059709;28;46173;-72
2022/01/09 02:13:10;;;;;;;;;7.25;5.50;;;;;;;;5059826;28;45409;-72
2022/01/09 02:15:38;;;;;;;;;6.00;3.75;;;;;;;;5060087;28;45474;-73
2022/01/09 02:18:05;;;;;;;;;5.00;3.25;;;;;;;;5060421;28;45460;-73
2022/01/09 02:20:30;;;;;;;;;9.00;6.00;;;;;;;;5059641;28;46026;-73
2022/01/09 02:22:56;;;;;;;;;7.50;3.50;;;;;;;;5059435;28;45419;-72
2022/01/09 02:25:21;;;;;;;;;7.75;5.50;;;;;;;;5060129;28;45326;-72
2022/01/09 02:27:47;;;;;;;;;10.50;5.00;;;;;;;;5059933;28;45417;-72
2022/01/09 02:30:12;;;;;;;;;5.00;4.00;;;;;;;;5059582;28;46171;-73
2022/01/09 02:32:38;;;;;;;;;10.25;8.25;;;;;;;;5060453;28;45353;-72
2022/01/09 02:35:04;;;;;;;;;9.25;5.00;;;;;;;;5059573;28;45394;-72
2022/01/09 02:37:29;;;;;;;;;6.00;4.00;;;;;;;;5059605;28;45382;-73
2022/01/09 02:39:55;;;;;;;;;6.25;4.00;;;;;;;;5059645;28;45255;-73
2022/01/09 02:42:22;;;;;;;;;5.75;5.25;;;;;;;;5059406;28;45346;-72
2022/01/09 02:44:48;;;;;;;;;7.00;6.00;;;;;;;;5059353;28;45340;-72
2022/01/09 02:47:13;;;;;;;;;7.25;5.00;;;;;;;;5059579;28;45320;-72
2022/01/09 02:49:39;;;;;;;;;10.50;5.50;;;;;;;;5059381;28;46245;-72
2022/01/09 02:52:11;;;;;;;;;7.75;4.50;;;;;;;;5059328;28;45429;-73
2022/01/09 02:57:20;;;;;;;;;11.50;5.00;;;;;;;;5059635;28;45476;-74
2022/01/09 02:59:46;;;;;;;;;9.00;7.00;;;;;;;;5059194;28;46366;-73
2022/01/09 03:02:11;;;;;;;;;6.00;4.00;;;;;;;;5059381;28;45444;-74
2022/01/09 03:04:36;;;;;;;;;6.25;5.00;;;;;;;;5059104;28;45436;-73
2022/01/09 03:07:02;;;;;;;;;5.50;4.00;;;;;;;;5059789;28;45230;-72
2022/01/09 03:09:27;;;;;;;;;10.75;6.00;;;;;;;;5058916;28;45949;-73
2022/01/09 03:11:52;;;;;;;;;10.25;7.00;;;;;;;;5059328;28;45301;-73
2022/01/09 03:14:18;;;;;;;;;11.25;6.00;;;;;;;;5059277;28;45340;-72
2022/01/09 03:16:43;;;;;;;;;8.50;4.75;;;;;;;;5059216;28;45330;-73
2022/01/09 03:19:09;;;;;;;;;14.75;12.50;;;;;;;;5058817;28;45503;-73
2022/01/09 03:21:34;;;;;;;;;17.00;10.25;;;;;;;;5058804;28;45280;-74
2022/01/09 03:23:59;;;;;;;;;6.50;4.00;;;;;;;;5058965;28;45267;-73
2022/01/09 03:26:25;;;;;;;;;4.50;3.00;;;;;;;;5059348;28;45239;-74
2022/01/09 03:28:50;;;;;;;;;4.50;3.00;;;;;;;;5058873;28;45295;-72
2022/01/09 03:31:15;;;;;;;;;7.75;4.50;;;;;;;;5058633;28;45341;-73
2022/01/09 03:33:41;;;;;;;;;12.25;11.00;;;;;;;;5058693;28;45419;-75
2022/01/09 03:36:06;;;;;;;;;11.25;7.75;;;;;;;;5058956;28;45460;-73
2022/01/09 03:38:31;;;;;;;;;9.50;5.25;;;;;;;;5057382;28;45372;-73
2022/01/09 03:40:57;;;;;;;;;9.75;5.00;;;;;;;;5059008;28;45336;-74
2022/01/09 03:43:22;;;;;;;;;6.25;4.00;;;;;;;;5057960;28;45331;-75
2022/01/09 03:45:47;;;;;;;;;9.00;3.00;;;;;;;;5058075;28;45445;-73
2022/01/09 03:48:13;;;;;;;;;6.75;2.25;;;;;;;;5058235;28;46111;-73
2022/01/09 03:50:38;;;;;;;;;8.75;3.75;;;;;;;;5058126;28;45381;-73
2022/01/09 03:53:04;;;;;;;;;5.75;3.25;;;;;;;;5058548;28;45480;-73
2022/01/09 03:55:30;;;;;;;;;6.50;3.00;;;;;;;;5058167;28;45508;-73
2022/01/09 03:57:55;;;;;;;;;6.25;4.00;;;;;;;;5056800;28;46295;-75
2022/01/09 04:00:22;;;;;;;;;3.67;3.00;;;;;;;;5058297;28;45354;-74
2022/01/09 04:02:48;;;;;;;;;5.00;3.00;;;;;;;;5058490;28;45368;-73
2022/01/09 04:05:14;;;;;;;;;4.50;2.75;;;;;;;;5057593;28;45503;-73
2022/01/09 04:07:39;;;;;;;;;6.00;4.50;;;;;;;;5057918;28;45404;-73
2022/01/09 04:10:05;;;;;;;;;6.25;2.00;;;;;;;;5057918;28;45505;-73
2022/01/09 04:12:35;;;;;;;;;20.25;13.50;;;;;;;;5058183;28;45270;-73
2022/01/09 04:15:02;;;;;;;;;11.00;8.00;;;;;;;;5058744;28;45256;-73
2022/01/09 04:17:37;;;;;;;;;7.00;5.75;;;;;;;;5058380;28;45409;-72
2022/01/09 04:20:07;;;;;;;;;5.00;2.75;;;;;;;;5058075;28;45329;-72
2022/01/09 04:22:32;;;;;;;;;10.00;3.00;;;;;;;;5057992;28;45468;-73
2022/01/09 04:24:57;;;;;;;;;10.00;6.75;;;;;;;;5057048;28;45549;-73
2022/01/09 04:27:23;;;;;;;;;4.50;4.00;;;;;;;;5057332;28;46214;-73
2022/01/09 04:29:48;;;;;;;;;6.00;4.25;;;;;;;;5058037;28;45448;-73
2022/01/09 04:32:13;;;;;;;;;9.75;3.00;;;;;;;;5058062;28;45366;-73
2022/01/09 04:34:39;;;;;;;;;4.50;3.50;;;;;;;;5057973;28;45456;-75
2022/01/09 04:37:04;;;;;;;;;6.25;4.00;;;;;;;;5057472;28;46044;-74
2022/01/09 04:39:30;;;;;;;;;7.00;6.00;;;;;;;;5058246;28;45172;-74
2022/01/09 04:41:55;;;;;;;;;6.00;4.25;;;;;;;;5057809;28;45290;-75
2022/01/09 04:44:21;;;;;;;;;3.00;2.25;;;;;;;;5057498;28;45265;-73
2022/01/09 04:46:54;;;;;;;;;5.75;4.00;;;;;;;;5057808;28;45706;-72
2022/01/09 04:49:23;;;;;;;;;11.00;4.25;;;;;;;;5057395;28;45476;-74
2022/01/09 04:51:48;;;;;;;;;5.00;4.25;;;;;;;;5057333;28;45587;-73
2022/01/09 04:54:14;;;;;;;;;11.25;7.25;;;;;;;;5056284;28;45605;-75
2022/01/09 04:56:39;;;;;;;;;6.75;4.25;;;;;;;;5057374;28;45384;-73
2022/01/09 04:59:05;;;;;;;;;4.75;3.50;;;;;;;;5057483;28;45297;-73
2022/01/09 05:01:30;;;;;;;;;7.75;6.00;;;;;;;;5057423;28;45421;-73
2022/01/09 05:03:55;;;;;;;;;4.75;4.50;;;;;;;;5057760;28;45372;-74
2022/01/09 05:06:21;;;;;;;;;10.75;5.00;;;;;;;;5057213;28;45520;-74
2022/01/09 05:08:47;;;;;;;;;9.50;6.00;;;;;;;;5056135;28;45353;-74
2022/01/09 05:11:12;;;;;;;;;15.25;11.75;;;;;;;;5057322;28;45472;-73
2022/01/09 05:13:37;;;;;;;;;11.00;7.00;;;;;;;;5057496;28;45459;-73
2022/01/09 05:16:03;;;;;;;;;6.25;4.75;;;;;;;;5055911;28;45587;-73
2022/01/09 05:18:28;;;;;;;;;9.25;4.25;;;;;;;;5057149;28;45452;-74
2022/01/09 05:20:54;;;;;;;;;6.75;4.75;;;;;;;;5057206;28;45460;-75
2022/01/09 05:23:19;;;;;;;;;6.75;4.50;;;;;;;;5057369;28;45245;-73
2022/01/09 05:25:44;;;;;;;;;6.75;4.00;;;;;;;;5057124;28;45889;-73
2022/01/09 05:28:10;;;;;;;;;3.00;2.00;;;;;;;;5057228;28;45311;-73
2022/01/09 05:30:35;;;;;;;;;6.25;4.25;;;;;;;;5057013;28;45486;-73
2022/01/09 05:33:00;;;;;;;;;8.25;4.25;;;;;;;;5057482;28;45432;-73
2022/01/09 05:35:26;;;;;;;;;5.00;2.00;;;;;;;;5056319;28;46052;-74
2022/01/09 05:37:52;;;;;;;;;3.50;3.25;;;;;;;;5057032;28;45402;-72
2022/01/09 05:40:19;;;;;;;;;5.00;3.00;;;;;;;;5056942;28;45353;-74
2022/01/09 05:42:44;;;;;;;;;6.25;5.25;;;;;;;;5057247;28;45423;-73
2022/01/09 05:45:10;;;;;;;;;6.00;4.00;;;;;;;;5056715;28;45991;-73
2022/01/09 05:47:36;;;;;;;;;6.50;3.50;;;;;;;;5055792;28;45571;-72
2022/01/09 05:50:01;;;;;;;;;6.00;4.00;;;;;;;;5044792;28;45756;-74
2022/01/09 05:52:26;;;;;;;;;6.75;4.00;;;;;;;;5046041;28;45450;-74
2022/01/09 05:54:52;;;;;;;;;6.00;4.00;;;;;;;;5043878;28;45326;-72
2022/01/09 05:57:17;;;;;;;;;8.25;5.50;;;;;;;;5046010;28;45385;-72
2022/01/09 05:59:45;;;;;;;;;6.25;4.75;;;;;;;;5046642;28;45242;-73
2022/01/09 06:02:11;;;;;;;;;6.00;5.25;;;;;;;;5044604;28;45355;-72
2022/01/09 06:04:36;;;;;;;;;5.00;3.00;;;;;;;;5046115;28;45455;-73
2022/01/09 06:07:02;;;;;;;;;4.50;3.50;;;;;;;;5048260;28;45428;-73
2022/01/09 06:09:27;;;;;;;;;5.00;3.75;;;;;;;;5046408;28;45598;-73
2022/01/09 06:11:53;;;;;;;;;4.75;3.00;;;;;;;;5045502;28;45555;-72
2022/01/09 06:14:18;;;;;;;;;5.75;3.75;;;;;;;;5046553;28;45568;-74
2022/01/09 06:16:43;;;;;;;;;5.33;4.00;;;;;;;;5044365;28;45580;-74
2022/01/09 06:19:10;;;;;;;;;4.33;3.00;;;;;;;;5050366;28;45849;-75
2022/01/09 06:21:36;;;;;;;;;5.00;3.00;;;;;;;;5050013;28;45851;-74
2022/01/09 06:24:01;;;;;;;;;4.67;3.00;;;;;;;;5052265;28;45667;-73
2022/01/09 06:26:26;;;;;;;;;4.00;3.00;;;;;;;;5049538;28;45452;-74
2022/01/09 06:28:52;;;;;;;;;4.00;3.00;;;;;;;;5052039;28;45620;-73
2022/01/09 06:31:17;;;;;;;;;6.00;3.25;;;;;;;;5054824;28;45456;-74
2022/01/09 06:33:43;;;;;;;;;7.33;4.00;;;;;;;;5050184;28;46486;-72
2022/01/09 06:36:08;;;;;;;;;4.25;3.25;;;;;;;;5054833;28;45413;-73
2022/01/09 06:38:33;;;;;;;;;7.75;4.50;;;;;;;;5050863;28;45800;-74
2022/01/09 06:40:59;;;;;;;;;7.00;3.67;;;;;;;;5051753;28;45345;-74
2022/01/09 06:43:24;;;;;;;;;5.75;3.75;;;;;;;;5051400;28;46027;-73
2022/01/09 06:45:50;;;;;;;;;7.00;4.25;;;;;;;;5051767;28;45382;-74
2022/01/09 06:48:16;;;;;;;;;7.33;1.67;;;;;;;;5049184;28;45309;-72
2022/01/09 06:50:41;;;;;;;;;4.00;3.33;;;;;;;;5050520;28;45334;-72
2022/01/09 06:53:07;;;;;;;;;34.50;25.50;;;;;;;;5050049;28;45361;-73
2022/01/09 06:55:32;;;;;;;;;35.50;29.50;;;;;;;;5048701;28;45472;-72
2022/01/09 06:57:58;;;;;;;;;11.50;6.00;;;;;;;;5058223;28;45335;-72
2022/01/09 07:00:24;;;;;;;;;12.75;12.00;;;;;;;;5047764;28;45429;-73
2022/01/09 07:02:49;;;;;;;;;12.00;6.00;;;;;;;;5048500;28;45493;-73
2022/01/09 07:05:15;;;;;;;;;6.75;3.50;;;;;;;;5046739;28;45396;-73
2022/01/09 07:07:41;;;;;;;;;9.50;5.00;;;;;;;;5049639;28;45318;-73
2022/01/09 07:10:07;;;;;;;;;11.25;6.00;;;;;;;;5043757;28;46103;-73
2022/01/09 07:12:32;;;;;;;;;8.25;6.25;;;;;;;;5039167;28;45329;-73
2022/01/09 07:14:58;;;;;;;;;15.00;11.00;;;;;;;;5043447;28;45460;-73
2022/01/09 07:17:23;;;;;;;;;9.67;5.00;;;;;;;;5039295;28;45202;-73
2022/01/09 07:19:48;;;;;;;;;8.25;5.50;;;;;;;;5040550;28;45497;-73
2022/01/09 07:22:14;;;;;;;;;4.00;3.67;;;;;;;;5045081;28;46042;-73
2022/01/09 07:24:39;;;;;;;;;8.25;4.00;;;;;;;;5039890;28;45445;-73
2022/01/09 07:27:05;;;;;;;;;6.67;5.00;;;;;;;;5039858;28;45281;-73
2022/01/09 07:29:30;;;;;;;;;5.75;4.00;;;;;;;;5039162;28;45398;-72
2022/01/09 07:31:56;;;;;;;;;5.00;3.00;;;;;;;;5037388;28;45616;-73
2022/01/09 07:34:21;;;;;;;;;4.00;1.00;;;;;;;;5038705;28;45447;-73
2022/01/09 07:36:47;;;;;;;;;6.67;5.67;;;;;;;;5038714;28;45287;-73
2022/01/09 07:39:13;;;;;;;;;8.50;6.25;;;;;;;;5038931;28;45477;-73
2022/01/09 07:41:39;;;;;;;;;18.75;13.75;;;;;;;;5037009;28;46547;-73
2022/01/09 07:44:05;;;;;;;;;6.25;4.50;;;;;;;;5038800;28;45460;-73
2022/01/09 07:46:30;;;;;;;;;7.50;4.00;;;;;;;;5038193;28;45481;-73
2022/01/09 07:48:56;;;;;;;;;32.00;27.75;;;;;;;;5038207;28;45504;-74
2022/01/09 07:51:21;;;;;;;;;12.75;10.75;;;;;;;;5038154;28;45528;-73
2022/01/09 07:53:46;;;;;;;;;8.75;7.00;;;;;;;;5038301;28;45821;-73
2022/01/09 07:56:12;;;;;;;;;12.00;5.33;;;;;;;;5038615;28;45277;-73
2022/01/09 07:58:37;;;;;;;;;10.75;6.25;;;;;;;;5038930;28;45532;-73
2022/01/09 08:01:02;;;;;;;;;7.50;6.00;;;;;;;;5038490;28;47073;-73
2022/01/09 08:03:28;;;;;;;;;10.00;5.25;;;;;;;;5038094;28;45783;-73
2022/01/09 08:05:53;;;;;;;;;12.75;5.50;;;;;;;;5050638;28;45709;-74
2022/01/09 08:08:18;;;;;;;;;9.75;8.00;;;;;;;;5048306;28;45497;-74
2022/01/09 08:10:44;;;;;;;;;13.33;5.00;;;;;;;;5047274;28;45975;-74
2022/01/09 08:13:10;;;;;;;;;10.25;9.25;;;;;;;;5049064;28;45492;-74
2022/01/09 08:15:35;;;;;;;;;9.00;6.67;;;;;;;;5051109;28;45874;-73
2022/01/09 08:18:01;;;;;;;;;13.67;7.00;;;;;;;;5045889;28;45605;-73
2022/01/09 08:20:26;;;;;;;;;8.33;6.00;;;;;;;;5051941;28;45495;-73
2022/01/09 08:22:52;;;;;;;;;9.50;8.00;;;;;;;;5048573;28;45893;-72
2022/01/09 08:25:19;;;;;;;;;9.50;5.50;;;;;;;;5062672;28;45520;-73
2022/01/09 08:27:45;;;;;;;;;12.00;5.67;;;;;;;;5063346;28;44706;-74
2022/01/09 08:30:11;;;;;;;;;7.00;5.67;;;;;;;;5067359;28;45577;-73
2022/01/09 08:32:37;;;;;;;;;8.67;5.67;;;;;;;;5067963;28;45405;-71
2022/01/09 08:35:02;;;;;;;;;14.50;8.00;;;;;;;;5069403;28;45423;-72
2022/01/09 08:37:28;;;;;;;;;6.67;5.00;;;;;;;;5056385;28;45291;-73
2022/01/09 08:39:53;;;;;;;;;11.00;5.67;;;;;;;;5046239;28;45988;-73
2022/01/09 08:42:18;;;;;;;;;14.67;7.33;;;;;;;;5044771;28;45536;-71
2022/01/09 08:44:44;;;;;;;;;19.25;15.00;;;;;;;;5047214;28;45512;-73
2022/01/09 08:47:09;;;;;;;;;20.00;15.50;;;;;;;;5045605;28;45500;-72
2022/01/09 08:49:35;;;;;;;;;13.25;10.50;;;;;;;;5045089;28;45253;-72
2022/01/09 08:52:01;;;;;;;;;6.00;5.00;;;;;;;;5044549;28;45545;-73
2022/01/09 08:54:26;;;;;;;;;7.00;6.33;;;;;;;;5046409;28;45503;-72
2022/01/09 08:56:51;;;;;;;;;9.00;5.33;;;;;;;;5046036;28;45567;-73
2022/01/09 08:59:17;;;;;;;;;10.67;5.33;;;;;;;;5045029;28;46239;-75
2022/01/09 09:01:42;;;;;;;;;14.00;10.00;;;;;;;;5044164;28;45385;-72
2022/01/09 09:04:08;;;;;;;;;13.75;9.75;;;;;;;;5047743;28;45340;-73
2022/01/09 09:06:34;;;;;;;;;7.67;4.00;;;;;;;;5047020;28;45468;-72
2022/01/09 09:08:59;;;;;;;;;9.33;5.00;;;;;;;;5046425;28;46106;-71
2022/01/09 09:11:24;;;;;;;;;4.67;4.00;;;;;;;;5045789;28;45267;-72
2022/01/09 09:13:50;;;;;;;;;11.25;8.50;;;;;;;;5051006;28;45535;-72
2022/01/09 09:16:16;;;;;;;;;11.33;5.67;;;;;;;;5057033;28;45248;-73
2022/01/09 09:18:43;;;;;;;;;9.00;7.25;;;;;;;;5057734;28;45953;-71
2022/01/09 09:21:09;;;;;;;;;6.33;5.00;;;;;;;;5042265;27;45504;-72
2022/01/09 09:23:34;;;;;;;;;6.33;5.33;;;;;;;;5040607;28;45349;-73
2022/01/09 09:25:59;;;;;;;;;29.50;29.25;;;;;;;;5038723;28;45310;-72
2022/01/09 09:28:25;;;;;;;;;82.75;68.75;;;;;;;;5046228;28;46090;-72
2022/01/09 09:30:50;;;;;;;;;69.75;53.50;;;;;;;;5047134;28;45459;-73
2022/01/09 09:33:15;;;;;;;;;37.25;32.00;;;;;;;;5046832;28;45522;-73
2022/01/09 09:35:41;;;;;;;;;41.00;34.75;;;;;;;;5048856;28;45290;-73
2022/01/09 09:38:06;;;;;;;;;24.75;18.25;;;;;;;;5049653;28;46317;-73
2022/01/09 09:40:32;;;;;;;;;26.00;22.50;;;;;;;;5046387;28;45771;-75
2022/01/09 09:42:58;;;;;;;;;15.75;14.00;;;;;;;;5043982;28;45368;-72
2022/01/09 09:45:24;;;;;;;;;11.25;9.00;;;;;;;;5048438;28;45432;-74
2022/01/09 09:47:50;;;;;;;;;14.75;9.00;;;;;;;;5043410;28;45493;-75
2022/01/09 09:50:16;;;;;;;;;10.00;6.25;;;;;;;;5041356;28;45244;-73
2022/01/09 09:52:42;;;;;;;;;13.50;11.75;;;;;;;;5040325;28;45393;-72
2022/01/09 09:55:07;;;;;;;;;16.00;13.75;;;;;;;;5043059;28;45552;-73
2022/01/09 09:57:33;;;;;;;;;20.50;17.50;;;;;;;;5042491;28;45494;-76
2022/01/09 10:00:08;;;;;;;;;45.75;34.25;;;;;;;;5044261;28;45421;-75
2022/01/09 10:02:46;;;;;;;;;6.25;6.00;;;;;;;;5047197;28;45422;-74
2022/01/09 10:05:13;;;;;;;;;13.50;13.50;;;;;;;;5044194;28;45640;-72
2022/01/09 10:07:38;;;;;;;;;17.00;13.50;;;;;;;;5046523;28;45484;-72
2022/01/09 10:10:05;;;;;;;;;13.25;9.50;;;;;;;;5039530;28;45523;-73
2022/01/09 10:12:31;;;;;;;;;35.00;28.50;;;;;;;;5043375;28;45606;-73
2022/01/09 10:14:58;;;;;;;;;36.25;32.50;;;;;;;;5047754;28;45411;-73
2022/01/09 10:17:24;;;;;;;;;34.00;26.25;;;;;;;;5060424;28;46231;-73
2022/01/09 10:19:54;;;;;;;;;40.00;31.00;;;;;;;;5062368;28;45440;-74
2022/01/09 10:22:28;;;;;;;;;35.75;30.00;;;;;;;;5062780;28;45495;-73
2022/01/09 10:24:55;;;;;;;;;39.00;35.00;;;;;;;;5060374;28;45439;-74
2022/01/09 10:27:31;;;;;;;;;29.25;27.00;;;;;;;;5060482;28;45432;-73
2022/01/09 10:29:57;;;;;;;;;22.75;18.75;;;;;;;;5060518;28;45324;-72
2022/01/09 10:32:30;;;;;;;;;10.25;9.00;;;;;;;;5052108;28;45398;-72
2022/01/09 10:35:14;;;;;;;;;20.25;17.00;;;;;;;;5050755;28;45447;-71
2022/01/09 10:37:40;;;;;;;;;34.25;26.75;;;;;;;;5049978;28;46413;-73
2022/01/09 10:40:08;;;;;;;;;22.25;13.25;;;;;;;;5048713;28;45421;-71
2022/01/09 10:42:37;;;;;;;;;14.00;11.50;;;;;;;;5049348;28;45671;-72
2022/01/09 10:45:20;;;;;;;;;15.00;10.00;;;;;;;;5051001;28;45802;-71
2022/01/09 10:47:48;;;;;;;;;13.50;11.50;;;;;;;;5051364;28;45931;-72
2022/01/09 10:50:30;;;;;;;;;17.75;16.00;;;;;;;;5048108;28;45618;-72
2022/01/09 10:53:31;;;;;;;;;27.00;23.00;;;;;;;;5050560;28;45583;-73
2022/01/09 10:55:59;;;;;;;;;11.25;9.00;;;;;;;;4997694;28;45500;-73
2022/01/09 10:58:27;;;;;;;;;13.50;8.50;;;;;;;;5038886;28;45513;-73
2022/01/09 11:01:09;;;;;;;;;19.50;14.75;;;;;;;;5049100;28;45491;-73
2022/01/09 11:03:34;;;;;;;;;14.25;8.75;;;;;;;;5050532;28;45516;-73
2022/01/09 11:06:03;;;;;;;;;12.25;9.75;;;;;;;;5048807;28;45445;-72
2022/01/09 11:08:29;;;;;;;;;59.00;47.25;;;;;;;;5047727;28;45688;-72
2022/01/09 11:10:54;;;;;;;;;27.75;26.25;;;;;;;;5047307;28;45474;-74
2022/01/09 11:13:20;;;;;;;;;17.00;12.25;;;;;;;;5048513;28;45546;-73
2022/01/09 11:16:32;;;;;;;;;9.00;6.67;;;;;;;;5046595;28;45561;-72
2022/01/09 11:18:31;;;;;;;;;19.75;17.00;;;;;;;;5047907;28;46101;-72
2022/01/09 11:20:57;;;;;;;;;15.00;14.25;;;;;;;;5047845;28;45385;-72
2022/01/09 11:23:24;;;;;;;;;13.25;9.50;;;;;;;;5045953;28;46057;-72
2022/01/09 11:25:53;;;;;;;;;9.67;8.00;;;;;;;;5047427;28;45416;-73
2022/01/09 11:28:23;;;;;;;;;13.00;9.33;;;;;;;;5046660;28;45494;-77
2022/01/09 11:30:53;;;;;;;;;7.67;6.00;;;;;;;;5047305;28;45443;-73
2022/01/09 11:33:18;;;;;;;;;7.67;6.00;;;;;;;;5047891;28;45772;-73
2022/01/09 11:35:54;;;;;;;;;6.00;6.00;;;;;;;;5045679;28;45611;-73
2022/01/09 11:38:48;;;;;;;;;7.33;5.33;;;;;;;;5045658;28;45976;-72
2022/01/09 11:41:15;;;;;;;;;10.33;7.00;;;;;;;;5047807;28;45595;-72
2022/01/09 11:43:54;;;;;;;;;16.50;13.25;;;;;;;;5048140;28;45426;-75
2022/01/09 11:46:19;;;;;;;;;10.00;7.00;;;;;;;;5047924;28;45526;-74
2022/01/09 11:48:50;;;;;;;;;29.00;27.25;;;;;;;;5047830;28;46257;-73
2022/01/09 11:51:17;;;;;;;;;14.75;12.00;;;;;;;;5047669;28;45463;-72
2022/01/09 11:54:12;;;;;;;;;18.25;16.25;;;;;;;;5045878;28;45612;-74
2022/01/09 11:56:44;;;;;;;;;5.33;5.00;;;;;;;;5041823;28;45961;-71
2022/01/09 11:59:17;;;;;;;;;11.33;8.00;;;;;;;;5057302;28;45811;-72
2022/01/09 12:01:44;;;;;;;;;9.33;7.67;;;;;;;;5055975;28;45483;-72
2022/01/09 12:04:28;;;;;;;;;11.00;8.00;;;;;;;;5049857;28;45487;-72
2022/01/09 12:06:56;;;;;;;;;14.25;12.50;;;;;;;;5056994;28;45387;-71
2022/01/09 12:09:34;;;;;;;;;17.50;16.75;;;;;;;;5057887;28;45412;-72
2022/01/09 12:12:03;;;;;;;;;12.00;9.00;;;;;;;;5057955;28;45495;-72
2022/01/09 12:14:53;;;;;;;;;22.50;20.25;;;;;;;;5057870;28;45266;-72
2022/01/09 12:17:25;;;;;;;;;25.50;21.50;;;;;;;;5057463;28;45496;-72
2022/01/09 12:20:07;;;;;;;;;15.00;12.00;;;;;;;;5057976;28;45451;-72
2022/01/09 12:25:21;;;;;;;;;6.67;6.00;;;;;;;;5057997;28;45473;-72
2022/01/09 12:27:48;;;;;;;;;5.67;4.00;;;;;;;;5058099;28;45270;-72
2022/01/09 12:30:44;;;;;;;;;9.33;8.00;;;;;;;;5057733;28;46065;-72
2022/01/09 12:33:20;;;;;;;;;11.67;11.67;;;;;;;;5058028;28;45206;-72
2022/01/09 12:35:54;;;;;;;;;7.33;6.00;;;;;;;;5057734;28;45206;-73
2022/01/09 12:38:21;;;;;;;;;7.67;7.00;;;;;;;;5057840;28;45202;-73
2022/01/09 12:40:47;;;;;;;;;8.00;7.00;;;;;;;;5057599;28;46013;-72
2022/01/09 12:43:14;;;;;;;;;7.00;5.00;;;;;;;;5057768;28;45690;-72
2022/01/09 12:45:43;;;;;;;;;3.00;2.33;;;;;;;;5058322;28;45431;-72
2022/01/09 12:48:15;;;;;;;;;3.33;2.00;;;;;;;;5058286;28;45415;-72
2022/01/09 12:50:41;;;;;;;;;15.75;12.00;;;;;;;;5057739;28;46086;-72
2022/01/09 12:53:13;;;;;;;;;6.67;4.00;;;;;;;;5057508;28;45468;-72
2022/01/09 12:55:54;;;;;;;;;13.00;10.25;;;;;;;;5058093;28;45225;-72
2022/01/09 12:58:27;;;;;;;;;4.00;4.00;;;;;;;;5057830;28;45202;-73
2022/01/09 13:00:52;;;;;;;;;3.00;2.00;;;;;;;;5057047;28;45609;-73
2022/01/09 13:03:19;;;;;;;;;5.00;2.33;;;;;;;;5057224;28;45316;-72
2022/01/09 13:05:52;;;;;;;;;1.33;1.00;;;;;;;;5057551;28;45238;-72
2022/01/09 13:08:18;;;;;;;;;3.67;2.00;;;;;;;;5057469;28;45424;-72
2022/01/09 13:10:44;;;;;;;;;3.00;3.00;;;;;;;;5057478;28;45493;-71
2022/01/09 13:13:11;;;;;;;;;5.00;4.00;;;;;;;;5057353;28;45297;-72
2022/01/09 13:15:37;;;;;;;;;4.33;3.00;;;;;;;;5057368;28;45518;-72
2022/01/09 13:18:04;;;;;;;;;3.67;1.67;;;;;;;;5057258;28;45616;-73
2022/01/09 13:20:29;;;;;;;;;3.00;2.00;;;;;;;;5057024;28;45661;-72
2022/01/09 13:23:10;;;;;;;;;4.00;3.00;;;;;;;;5057074;28;45882;-72
2022/01/09 13:25:43;;;;;;;;;3.67;3.00;;;;;;;;5057310;28;45483;-72
2022/01/09 13:28:23;;;;;;;;;1.67;1.00;;;;;;;;5057261;28;45286;-72
2022/01/09 13:30:55;;;;;;;;;14.00;12.50;;;;;;;;5058583;28;46369;-73
2022/01/09 13:33:21;;;;;;;;;5.00;3.67;;;;;;;;5060790;28;45305;-72
2022/01/09 13:35:46;;;;;;;;;8.50;6.50;;;;;;;;5060446;28;45229;-72
2022/01/09 13:38:11;;;;;;;;;4.33;2.67;;;;;;;;5061155;28;45302;-72
2022/01/09 13:40:37;;;;;;;;;2.00;1.00;;;;;;;;5060423;28;46117;-72
2022/01/09 13:43:03;;;;;;;;;1.00;1.00;;;;;;;;5060428;28;45246;-72
2022/01/09 13:45:32;;;;;;;;;0.00;0.00;;;;;;;;5060792;28;45230;-73
2022/01/09 13:47:59;;;;;;;;;0.67;0.00;;;;;;;;5060666;28;45432;-72
2022/01/09 13:50:35;;;;;;;;;3.67;3.00;;;;;;;;5060076;28;46037;-72
2022/01/09 13:53:09;;;;;;;;;0.00;0.00;;;;;;;;5059045;28;45551;-72
2022/01/09 13:55:35;;;;;;;;;2.00;2.00;;;;;;;;5060257;28;45488;-72
2022/01/09 13:58:05;;;;;;;;;1.00;0.00;;;;;;;;5060393;28;45459;-72
2022/01/09 14:22:41;;;;;;;;;3.00;1.00;;;;;10.95;75.74;100462.50;5069290;27;45733;-74
2022/01/09 14:25:10;;;;;;;;;1.67;0.00;;;;;10.95;75.63;100428.53;5053917;28;45460;-80
2022/01/09 14:27:47;;;;;;;;;1.00;0.00;;;;;11.20;75.01;100451.81;5053774;28;45368;-75
2022/01/09 14:30:34;;;;;;;;;4.75;4.00;;;;;11.20;75.63;100443.97;5053926;28;46192;-81
2022/01/09 14:33:24;;;;;;;;;50.75;42.25;;;;;11.26;75.28;100457.19;5053814;28;46062;-84
2022/01/09 14:35:54;;;;;;;;;3.67;3.00;;;;;11.26;75.77;100447.63;5053249;28;45465;-75
2022/01/09 14:38:27;;;;;;;;;1.00;0.67;;;;;11.17;75.99;100428.22;5058844;28;45424;-77
2022/01/09 14:40:58;;;;;;;;;2.00;1.00;;;;;11.20;75.69;100439.66;5070422;28;45406;-78
2022/01/09 14:43:26;;;;;;;;;3.00;1.00;;;;;11.30;74.75;100425.03;5038699;28;45937;-75
2022/01/09 14:45:54;;;;;;;;;2.67;2.00;;;;;11.23;74.74;100404.84;5053034;28;45516;-75
2022/01/09 14:48:21;;;;;;;;;2.33;1.00;;;;;11.30;74.58;100420.72;5035198;28;45566;-74
2022/01/09 14:50:48;;;;;;;;;2.67;2.00;;;;;11.31;74.41;100430.31;5036523;28;45617;-75
2022/01/09 14:53:14;;;;;;;;;2.00;1.00;;;;;11.28;73.78;100431.97;5052745;28;46193;-74
2022/01/09 14:55:43;;;;;;;;;2.33;2.00;;;;;11.22;74.01;100409.19;5052652;28;45643;-86